createdAt,value
2018-02-25T00:00:34.825Z,34.84
2018-02-25T00:01:37.300Z,34.95
2018-02-25T00:02:39.775Z,34.94
2018-02-25T00:03:42.251Z,34.97
2018-02-25T00:04:44.727Z,35.09
2018-02-25T00:05:47.202Z,35.34
2018-02-25T00:06:49.689Z,35.64
2018-02-25T00:07:52.194Z,36.08
2018-02-25T00:08:54.662Z,36.02
2018-02-25T00:09:57.135Z,36.09
2018-02-25T00:10:59.621Z,36.27
2018-02-25T00:12:02.095Z,36.54
2018-02-25T00:13:04.587Z,36.64
2018-02-25T00:14:07.059Z,36.86
2018-02-25T00:15:09.536Z,36.93
2018-02-25T00:16:12.008Z,37.10
2018-02-25T00:17:14.502Z,37.21
2018-02-25T00:18:16.986Z,37.36
2018-02-25T00:19:19.469Z,37.67
2018-02-25T00:20:21.943Z,37.83
2018-02-25T00:21:24.419Z,38.01
2018-02-25T00:22:29.757Z,37.97
2018-02-25T00:23:32.230Z,38.07
2018-02-25T00:24:34.738Z,38.31
2018-02-25T00:25:37.289Z,38.38
2018-02-25T00:26:39.759Z,38.41
2018-02-25T00:27:42.258Z,38.44
2018-02-25T00:28:44.752Z,38.53
2018-02-25T00:29:47.252Z,38.68
2018-02-25T00:30:49.734Z,38.76
2018-02-25T00:31:52.207Z,38.82
2018-02-25T00:32:54.701Z,38.94
2018-02-25T00:33:57.186Z,39.12
2018-02-25T00:34:59.680Z,39.13
2018-02-25T00:36:02.171Z,39.26
2018-02-25T00:37:04.661Z,39.47
2018-02-25T00:38:07.150Z,39.36
2018-02-25T00:39:09.729Z,39.49
2018-02-25T00:40:12.235Z,39.58
2018-02-25T00:41:14.720Z,39.70
2018-02-25T00:42:17.215Z,39.75
2018-02-25T00:43:19.696Z,39.80
2018-02-25T00:44:22.184Z,39.78
2018-02-25T00:45:24.693Z,39.75
2018-02-25T00:46:27.181Z,39.74
2018-02-25T00:47:29.670Z,40.04
2018-02-25T00:48:32.690Z,40.02
2018-02-25T00:49:35.165Z,40.07
2018-02-25T00:50:37.684Z,40.12
2018-02-25T00:51:40.175Z,40.12
2018-02-25T00:52:42.664Z,40.17
2018-02-25T00:53:45.163Z,40.22
2018-02-25T00:54:47.643Z,40.15
2018-02-25T00:55:50.161Z,40.17
2018-02-25T00:56:52.650Z,40.19
2018-02-25T00:57:55.146Z,40.30
2018-02-25T00:58:57.638Z,40.22
2018-02-25T01:00:00.113Z,40.30
2018-02-25T01:01:02.621Z,40.34
2018-02-25T01:02:05.097Z,40.34
2018-02-25T01:03:07.665Z,40.31
2018-02-25T01:04:10.155Z,40.46
2018-02-25T01:05:12.631Z,40.57
2018-02-25T01:06:15.141Z,40.53
2018-02-25T01:07:17.620Z,40.51
2018-02-25T01:08:20.106Z,40.69
2018-02-25T01:09:22.598Z,40.59
2018-02-25T01:10:25.085Z,40.69
2018-02-25T01:11:27.583Z,40.80
2018-02-25T01:12:30.060Z,40.95
2018-02-25T01:13:32.538Z,41.10
2018-02-25T01:14:35.029Z,41.08
2018-02-25T01:15:37.515Z,40.93
2018-02-25T01:16:40.038Z,41.03
2018-02-25T01:17:42.524Z,41.09
2018-02-25T01:18:44.996Z,41.08
2018-02-25T01:19:47.473Z,41.21
2018-02-25T01:20:49.965Z,41.32
2018-02-25T01:21:52.459Z,41.43
2018-02-25T01:22:54.944Z,41.47
2018-02-25T01:23:57.415Z,41.45
2018-02-25T01:24:59.890Z,41.46
2018-02-25T01:26:02.387Z,41.41
2018-02-25T01:27:04.889Z,41.27
2018-02-25T01:28:07.363Z,41.22
2018-02-25T01:29:09.844Z,41.22
2018-02-25T01:30:12.310Z,41.18
2018-02-25T01:31:14.814Z,41.27
2018-02-25T01:32:17.320Z,41.16
2018-02-25T01:33:19.792Z,41.16
2018-02-25T01:34:22.270Z,41.08
2018-02-25T01:35:24.739Z,41.06
2018-02-25T01:36:27.215Z,41.12
2018-02-25T01:37:29.722Z,41.13
2018-02-25T01:38:32.191Z,41.21
2018-02-25T01:39:34.672Z,41.31
2018-02-25T01:40:37.151Z,41.47
2018-02-25T01:41:39.644Z,41.32
2018-02-25T01:42:42.140Z,41.42
2018-02-25T01:43:44.614Z,41.40
2018-02-25T01:44:47.106Z,41.51
2018-02-25T01:45:49.583Z,41.55
2018-02-25T01:46:52.064Z,41.67
2018-02-25T01:47:54.569Z,41.67
2018-02-25T01:48:57.062Z,41.74
2018-02-25T01:49:59.557Z,41.90
2018-02-25T01:51:04.658Z,41.88
2018-02-25T01:52:07.157Z,42.10
2018-02-25T01:53:09.635Z,42.13
2018-02-25T01:54:12.209Z,42.59
2018-02-25T01:55:14.697Z,42.02
2018-02-25T01:56:17.181Z,42.13
2018-02-25T01:57:19.732Z,42.12
2018-02-25T01:58:22.172Z,42.31
2018-02-25T01:59:24.655Z,42.41
2018-02-25T02:00:27.131Z,42.19
2018-02-25T02:01:29.612Z,42.32
2018-02-25T02:02:32.084Z,42.52
2018-02-25T02:03:34.570Z,42.47
2018-02-25T02:04:37.043Z,42.58
2018-02-25T02:05:39.541Z,42.76
2018-02-25T02:06:42.030Z,42.92
2018-02-25T02:07:44.516Z,42.78
2018-02-25T02:08:46.993Z,42.79
2018-02-25T02:09:49.487Z,42.96
2018-02-25T02:10:51.976Z,43.13
2018-02-25T02:11:54.462Z,42.93
2018-02-25T02:12:56.951Z,42.79
2018-02-25T02:13:59.446Z,42.77
2018-02-25T02:15:01.923Z,42.67
2018-02-25T02:16:04.400Z,42.53
2018-02-25T02:17:06.887Z,42.48
2018-02-25T02:18:09.363Z,42.42
2018-02-25T02:19:11.863Z,42.36
2018-02-25T02:20:14.357Z,42.32
2018-02-25T02:21:16.835Z,42.24
2018-02-25T02:22:19.303Z,42.18
2018-02-25T02:23:21.778Z,42.31
2018-02-25T02:24:24.256Z,42.27
2018-02-25T02:25:26.750Z,42.23
2018-02-25T02:26:29.227Z,42.25
2018-02-25T02:27:31.713Z,42.47
2018-02-25T02:28:34.205Z,42.47
2018-02-25T02:29:36.694Z,42.58
2018-02-25T02:30:39.180Z,42.59
2018-02-25T02:31:41.664Z,42.62
2018-02-25T02:32:44.157Z,42.65
2018-02-25T02:33:46.646Z,42.67
2018-02-25T02:34:49.132Z,42.78
2018-02-25T02:35:51.625Z,42.86
2018-02-25T02:36:54.116Z,43.02
2018-02-25T02:37:56.601Z,43.09
2018-02-25T02:38:59.093Z,43.25
2018-02-25T02:40:01.583Z,43.18
2018-02-25T02:41:04.047Z,43.10
2018-02-25T02:42:06.534Z,43.06
2018-02-25T02:43:09.013Z,43.37
2018-02-25T02:44:11.512Z,43.36
2018-02-25T02:45:14.010Z,43.42
2018-02-25T02:46:16.505Z,43.82
2018-02-25T02:47:19.009Z,43.41
2018-02-25T02:48:21.507Z,43.74
2018-02-25T02:49:24.000Z,44.32
2018-02-25T02:50:26.486Z,44.02
2018-02-25T02:51:28.960Z,44.07
2018-02-25T02:52:31.439Z,44.22
2018-02-25T02:53:33.919Z,43.94
2018-02-25T02:54:36.396Z,43.86
2018-02-25T02:55:38.872Z,44.13
2018-02-25T02:56:41.363Z,44.16
2018-02-25T02:57:43.842Z,44.00
2018-02-25T02:58:46.325Z,43.97
2018-02-25T02:59:48.817Z,43.93
2018-02-25T03:00:51.309Z,43.78
2018-02-25T03:01:53.824Z,43.66
2018-02-25T03:02:56.281Z,43.58
2018-02-25T03:03:58.753Z,43.54
2018-02-25T03:05:01.255Z,43.59
2018-02-25T03:06:03.751Z,43.48
2018-02-25T03:07:06.227Z,43.46
2018-02-25T03:08:08.700Z,43.57
2018-02-25T03:09:11.457Z,43.24
2018-02-25T03:10:13.935Z,43.26
2018-02-25T03:11:16.429Z,43.29
2018-02-25T03:12:18.917Z,43.36
2018-02-25T03:13:21.418Z,43.39
2018-02-25T03:14:23.914Z,43.48
2018-02-25T03:15:26.409Z,43.50
2018-02-25T03:16:28.892Z,43.58
2018-02-25T03:17:31.500Z,43.73
2018-02-25T03:18:33.993Z,43.61
2018-02-25T03:19:36.485Z,43.66
2018-02-25T03:20:38.963Z,43.73
2018-02-25T03:21:41.458Z,43.68
2018-02-25T03:22:43.939Z,43.75
2018-02-25T03:23:46.433Z,43.75
2018-02-25T03:24:48.907Z,43.82
2018-02-25T03:25:51.402Z,43.77
2018-02-25T03:26:53.905Z,43.73
2018-02-25T03:27:56.397Z,43.94
2018-02-25T03:28:58.893Z,44.00
2018-02-25T03:30:01.382Z,43.98
2018-02-25T03:31:03.856Z,43.87
2018-02-25T03:32:06.323Z,43.87
2018-02-25T03:33:08.817Z,43.96
2018-02-25T03:34:11.312Z,44.23
2018-02-25T03:35:13.822Z,44.21
2018-02-25T03:36:16.303Z,44.30
2018-02-25T03:37:18.797Z,44.11
2018-02-25T03:38:21.271Z,44.35
2018-02-25T03:39:23.739Z,44.10
2018-02-25T03:40:26.233Z,44.31
2018-02-25T03:41:28.715Z,44.54
2018-02-25T03:42:31.192Z,44.84
2018-02-25T03:43:33.667Z,44.68
2018-02-25T03:44:36.157Z,44.70
2018-02-25T03:45:38.641Z,44.67
2018-02-25T03:46:41.138Z,44.56
2018-02-25T03:47:43.629Z,44.57
2018-02-25T03:48:46.106Z,44.44
2018-02-25T03:49:48.605Z,44.64
2018-02-25T03:50:51.156Z,44.56
2018-02-25T03:51:53.632Z,44.45
2018-02-25T03:52:56.123Z,44.44
2018-02-25T03:53:58.647Z,44.41
2018-02-25T03:55:01.131Z,44.40
2018-02-25T03:56:03.612Z,44.30
2018-02-25T03:57:06.087Z,44.34
2018-02-25T03:58:08.568Z,44.50
2018-02-25T03:59:11.060Z,44.51
2018-02-25T04:00:13.545Z,44.47
2018-02-25T04:01:16.039Z,44.62
2018-02-25T04:02:18.515Z,44.64
2018-02-25T04:03:21.005Z,44.77
2018-02-25T04:04:23.499Z,44.80
2018-02-25T04:05:25.996Z,44.90
2018-02-25T04:06:28.485Z,44.94
2018-02-25T04:07:30.962Z,44.95
2018-02-25T04:08:33.461Z,44.99
2018-02-25T04:09:35.955Z,45.12
2018-02-25T04:10:38.426Z,45.06
2018-02-25T04:11:40.911Z,44.93
2018-02-25T04:12:43.404Z,45.07
2018-02-25T04:13:45.889Z,45.04
2018-02-25T04:14:48.370Z,44.95
2018-02-25T04:15:50.869Z,44.90
2018-02-25T04:16:53.358Z,44.78
2018-02-25T04:17:55.846Z,44.68
2018-02-25T04:18:58.327Z,44.77
2018-02-25T04:20:00.813Z,44.79
2018-02-25T04:21:03.283Z,44.82
2018-02-25T04:22:05.764Z,44.87
2018-02-25T04:23:08.239Z,44.81
2018-02-25T04:24:10.734Z,45.12
2018-02-25T04:25:13.227Z,45.23
2018-02-25T04:26:15.713Z,45.39
2018-02-25T04:27:18.186Z,45.40
2018-02-25T04:28:20.659Z,45.31
2018-02-25T04:29:23.136Z,45.29
2018-02-25T04:30:25.625Z,45.25
2018-02-25T04:31:28.103Z,45.23
2018-02-25T04:32:30.581Z,45.05
2018-02-25T04:33:33.060Z,44.98
2018-02-25T04:34:35.545Z,44.89
2018-02-25T04:35:38.039Z,45.05
2018-02-25T04:36:40.529Z,44.94
2018-02-25T04:37:43.023Z,44.82
2018-02-25T04:38:45.494Z,44.90
2018-02-25T04:39:48.010Z,44.78
2018-02-25T04:40:50.483Z,44.83
2018-02-25T04:41:52.964Z,44.91
2018-02-25T04:42:55.446Z,44.98
2018-02-25T04:43:57.942Z,44.94
2018-02-25T04:45:00.438Z,45.07
2018-02-25T04:46:02.921Z,45.11
2018-02-25T04:47:05.402Z,45.53
2018-02-25T04:48:07.894Z,45.59
2018-02-25T04:49:10.383Z,45.52
2018-02-25T04:50:12.851Z,45.53
2018-02-25T04:51:15.327Z,45.68
2018-02-25T04:52:17.826Z,45.83
2018-02-25T04:53:20.292Z,45.88
2018-02-25T04:54:22.763Z,46.04
2018-02-25T04:55:25.258Z,45.97
2018-02-25T04:56:27.739Z,45.88
2018-02-25T04:57:30.220Z,45.90
2018-02-25T04:58:32.714Z,46.26
2018-02-25T04:59:35.214Z,46.38
2018-02-25T05:00:37.715Z,46.30
2018-02-25T05:01:40.202Z,46.43
2018-02-25T05:02:42.723Z,46.48
2018-02-25T05:03:45.203Z,46.55
2018-02-25T05:04:47.679Z,46.22
2018-02-25T05:05:50.182Z,46.60
2018-02-25T05:06:52.663Z,46.56
2018-02-25T05:07:55.153Z,46.51
2018-02-25T05:08:57.640Z,46.37
2018-02-25T05:10:00.129Z,46.30
2018-02-25T05:11:02.633Z,46.27
2018-02-25T05:12:05.125Z,46.39
2018-02-25T05:13:07.615Z,46.31
2018-02-25T05:14:10.105Z,46.34
2018-02-25T05:15:12.602Z,46.34
2018-02-25T05:16:15.085Z,46.14
2018-02-25T05:17:17.565Z,46.11
2018-02-25T05:18:20.047Z,46.11
2018-02-25T05:19:22.536Z,46.23
2018-02-25T05:20:25.017Z,46.11
2018-02-25T05:21:27.517Z,46.11
2018-02-25T05:22:29.996Z,46.20
2018-02-25T05:23:32.481Z,46.19
2018-02-25T05:24:34.967Z,46.10
2018-02-25T05:25:37.451Z,46.11
2018-02-25T05:26:39.938Z,46.20
2018-02-25T05:27:42.437Z,46.20
2018-02-25T05:28:44.935Z,46.26
2018-02-25T05:29:47.417Z,46.38
2018-02-25T05:30:49.892Z,46.35
2018-02-25T05:31:52.366Z,46.46
2018-02-25T05:32:54.857Z,46.53
2018-02-25T05:33:57.351Z,46.68
2018-02-25T05:34:59.854Z,46.48
2018-02-25T05:36:02.336Z,46.63
2018-02-25T05:37:04.808Z,46.59
2018-02-25T05:38:07.300Z,46.67
2018-02-25T05:39:09.779Z,46.59
2018-02-25T05:40:12.283Z,46.48
2018-02-25T05:41:14.758Z,46.40
2018-02-25T05:42:17.226Z,46.56
2018-02-25T05:43:19.717Z,46.53
2018-02-25T05:44:22.207Z,46.54
2018-02-25T05:45:24.688Z,46.49
2018-02-25T05:46:27.187Z,46.43
2018-02-25T05:47:29.678Z,46.51
2018-02-25T05:48:32.170Z,47.13
2018-02-25T05:49:34.644Z,47.03
2018-02-25T05:50:37.150Z,47.12
2018-02-25T05:51:39.628Z,47.12
2018-02-25T05:52:42.112Z,47.04
2018-02-25T05:53:44.601Z,47.16
2018-02-25T05:54:47.117Z,47.13
2018-02-25T05:55:49.581Z,47.07
2018-02-25T05:56:52.060Z,47.00
2018-02-25T05:57:54.553Z,46.86
2018-02-25T05:58:57.032Z,46.82
2018-02-25T05:59:59.525Z,47.02
2018-02-25T06:01:02.003Z,46.88
2018-02-25T06:02:04.491Z,46.74
2018-02-25T06:03:06.983Z,46.88
2018-02-25T06:04:09.467Z,46.91
2018-02-25T06:05:11.951Z,47.31
2018-02-25T06:06:14.431Z,46.89
2018-02-25T06:07:16.921Z,47.10
2018-02-25T06:08:19.410Z,47.10
2018-02-25T06:09:21.901Z,47.21
2018-02-25T06:10:24.381Z,47.21
2018-02-25T06:11:26.880Z,47.25
2018-02-25T06:12:29.364Z,47.30
2018-02-25T06:13:31.850Z,47.31
2018-02-25T06:14:34.319Z,47.41
2018-02-25T06:15:36.805Z,47.54
2018-02-25T06:16:39.283Z,47.52
2018-02-25T06:17:41.769Z,47.76
2018-02-25T06:18:44.269Z,47.45
2018-02-25T06:19:46.761Z,47.51
2018-02-25T06:20:49.230Z,47.61
2018-02-25T06:21:51.703Z,47.65
2018-02-25T06:22:54.167Z,47.54
2018-02-25T06:23:56.661Z,47.57
2018-02-25T06:24:59.144Z,47.62
2018-02-25T06:26:01.625Z,47.59
2018-02-25T06:27:04.104Z,47.87
2018-02-25T06:28:06.599Z,47.76
2018-02-25T06:29:09.075Z,47.98
2018-02-25T06:30:11.552Z,48.21
2018-02-25T06:31:14.038Z,48.10
2018-02-25T06:32:16.521Z,48.01
2018-02-25T06:33:19.040Z,48.03
2018-02-25T06:34:21.527Z,47.96
2018-02-25T06:35:23.999Z,47.88
2018-02-25T06:36:26.490Z,47.84
2018-02-25T06:37:28.977Z,47.78
2018-02-25T06:38:31.457Z,47.87
2018-02-25T06:39:33.946Z,48.02
2018-02-25T06:40:36.439Z,47.65
2018-02-25T06:41:38.920Z,47.60
2018-02-25T06:42:41.430Z,47.68
2018-02-25T06:43:43.925Z,47.69
2018-02-25T06:44:46.409Z,47.51
2018-02-25T06:45:48.892Z,47.62
2018-02-25T06:46:51.377Z,47.58
2018-02-25T06:47:53.875Z,47.67
2018-02-25T06:48:56.355Z,47.99
2018-02-25T06:49:58.811Z,47.73
2018-02-25T06:51:01.294Z,48.23
2018-02-25T06:52:03.817Z,48.24
2018-02-25T06:53:06.310Z,48.33
2018-02-25T06:54:08.811Z,48.42
2018-02-25T06:55:11.311Z,48.70
2018-02-25T06:56:13.802Z,48.66
2018-02-25T06:57:16.297Z,48.60
2018-02-25T06:58:18.776Z,48.63
2018-02-25T06:59:21.269Z,48.64
2018-02-25T07:00:23.748Z,48.62
2018-02-25T07:01:26.214Z,48.61
2018-02-25T07:02:28.709Z,48.41
2018-02-25T07:03:31.190Z,48.39
2018-02-25T07:04:33.680Z,48.42
2018-02-25T07:05:36.165Z,48.54
2018-02-25T07:06:38.650Z,48.53
2018-02-25T07:07:41.136Z,48.54
2018-02-25T07:08:43.611Z,48.51
2018-02-25T07:09:46.102Z,49.20
2018-02-25T07:10:48.589Z,49.13
2018-02-25T07:11:51.096Z,49.42
2018-02-25T07:12:53.594Z,49.40
2018-02-25T07:13:56.081Z,49.46
2018-02-25T07:14:58.572Z,49.40
2018-02-25T07:16:01.053Z,47.99
2018-02-25T07:17:03.524Z,46.87
2018-02-25T07:18:05.996Z,40.33
2018-02-25T07:19:08.479Z,39.80
2018-02-25T07:20:10.978Z,38.76
2018-02-25T07:21:13.528Z,38.55
2018-02-25T07:22:15.989Z,36.94
2018-02-25T07:23:18.487Z,37.18
2018-02-25T07:24:20.959Z,35.85
2018-02-25T07:25:23.436Z,35.78
2018-02-25T07:26:25.951Z,35.68
2018-02-25T07:27:28.437Z,36.16
2018-02-25T07:28:30.931Z,36.30
2018-02-25T07:29:33.418Z,35.96
2018-02-25T07:30:35.905Z,35.24
2018-02-25T07:31:38.375Z,35.46
2018-02-25T07:32:40.886Z,35.13
2018-02-25T07:33:43.381Z,35.03
2018-02-25T07:34:45.854Z,34.73
2018-02-25T07:35:48.326Z,33.28
2018-02-25T07:36:51.036Z,33.29
2018-02-25T07:37:53.544Z,33.96
2018-02-25T07:38:56.011Z,34.24
2018-02-25T07:39:58.501Z,34.16
2018-02-25T07:41:00.990Z,33.85
2018-02-25T07:42:03.478Z,33.67
2018-02-25T07:43:05.964Z,33.61
2018-02-25T07:44:08.461Z,33.49
2018-02-25T07:45:10.953Z,33.50
2018-02-25T07:46:13.458Z,33.42
2018-02-25T07:47:15.950Z,32.17
2018-02-25T07:48:18.438Z,32.08
2018-02-25T07:49:20.907Z,29.71
2018-02-25T07:50:23.379Z,30.31
2018-02-25T07:51:25.875Z,29.98
2018-02-25T07:52:28.370Z,30.03
2018-02-25T07:53:30.855Z,29.67
2018-02-25T07:54:33.345Z,29.18
2018-02-25T07:55:35.833Z,28.59
2018-02-25T07:56:38.334Z,28.56
2018-02-25T07:57:40.825Z,28.84
2018-02-25T07:58:43.305Z,28.86
2018-02-25T07:59:45.781Z,29.06
2018-02-25T08:00:48.267Z,29.30
2018-02-25T08:01:50.743Z,29.35
2018-02-25T08:02:53.228Z,28.82
2018-02-25T08:03:55.714Z,28.39
2018-02-25T08:04:58.217Z,28.13
2018-02-25T08:06:00.691Z,27.49
2018-02-25T08:07:03.165Z,27.58
2018-02-25T08:08:05.777Z,27.64
2018-02-25T08:09:08.261Z,27.34
2018-02-25T08:10:10.799Z,26.95
2018-02-25T08:11:13.357Z,26.68
2018-02-25T08:12:15.900Z,26.86
2018-02-25T08:13:18.389Z,27.07
2018-02-25T08:14:20.937Z,27.45
2018-02-25T08:15:23.502Z,27.15
2018-02-25T08:16:26.051Z,26.76
2018-02-25T08:17:28.528Z,26.75
2018-02-25T08:18:31.079Z,26.93
2018-02-25T08:19:33.642Z,26.61
2018-02-25T08:20:36.298Z,26.67
2018-02-25T08:21:38.794Z,26.71
2018-02-25T08:22:41.404Z,25.84
2018-02-25T08:23:43.900Z,25.60
2018-02-25T08:24:46.399Z,25.63
2018-02-25T08:25:48.892Z,25.03
2018-02-25T08:26:51.516Z,24.96
2018-02-25T08:27:54.013Z,25.35
2018-02-25T08:28:56.498Z,25.28
2018-02-25T08:29:58.972Z,25.91
2018-02-25T08:31:01.461Z,26.44
2018-02-25T08:32:03.958Z,27.28
2018-02-25T08:33:06.463Z,27.93
2018-02-25T08:34:08.964Z,28.05
2018-02-25T08:35:11.524Z,28.32
2018-02-25T08:36:14.084Z,28.48
2018-02-25T08:37:16.644Z,28.81
2018-02-25T08:38:19.208Z,29.20
2018-02-25T08:39:21.754Z,29.32
2018-02-25T08:40:24.249Z,29.48
2018-02-25T08:41:26.784Z,29.54
2018-02-25T08:42:29.266Z,29.82
2018-02-25T08:43:31.801Z,29.75
2018-02-25T08:44:34.297Z,29.85
2018-02-25T08:45:36.819Z,29.61
2018-02-25T08:46:39.302Z,29.69
2018-02-25T08:47:41.805Z,29.22
2018-02-25T08:48:44.398Z,28.47
2018-02-25T08:49:46.963Z,28.56
2018-02-25T08:50:49.518Z,28.20
2018-02-25T08:51:52.080Z,27.86
2018-02-25T08:52:54.641Z,27.42
2018-02-25T08:53:57.130Z,27.62
2018-02-25T08:54:59.658Z,27.38
2018-02-25T08:56:02.220Z,27.49
2018-02-25T08:57:04.775Z,27.62
2018-02-25T08:58:07.335Z,28.24
2018-02-25T08:59:09.894Z,28.35
2018-02-25T09:00:12.459Z,28.08
2018-02-25T09:01:15.015Z,28.61
2018-02-25T09:02:17.506Z,28.83
2018-02-25T09:03:20.035Z,29.24
2018-02-25T09:04:22.516Z,29.47
2018-02-25T09:05:25.055Z,29.70
2018-02-25T09:06:27.782Z,30.11
2018-02-25T09:07:30.375Z,30.38
2018-02-25T09:08:32.861Z,30.41
2018-02-25T09:09:35.398Z,30.54
2018-02-25T09:10:37.882Z,30.95
2018-02-25T09:11:40.355Z,31.14
2018-02-25T09:12:42.867Z,31.28
2018-02-25T09:13:45.436Z,31.51
2018-02-25T09:14:47.984Z,31.72
2018-02-25T09:15:50.651Z,31.80
2018-02-25T09:16:53.215Z,31.87
2018-02-25T09:17:55.683Z,32.12
2018-02-25T09:18:58.232Z,32.13
2018-02-25T09:20:00.791Z,32.12
2018-02-25T09:21:03.342Z,32.14
2018-02-25T09:22:05.913Z,32.29
2018-02-25T09:23:08.395Z,32.36
2018-02-25T09:24:10.932Z,32.61
2018-02-25T09:25:13.400Z,32.68
2018-02-25T09:26:15.943Z,32.87
2018-02-25T09:27:18.507Z,33.08
2018-02-25T09:28:21.069Z,33.25
2018-02-25T09:29:23.560Z,33.47
2018-02-25T09:30:26.032Z,33.60
2018-02-25T09:31:28.540Z,33.79
2018-02-25T09:32:31.089Z,33.85
2018-02-25T09:33:33.591Z,34.02
2018-02-25T09:34:36.121Z,34.10
2018-02-25T09:35:38.679Z,34.24
2018-02-25T09:36:41.160Z,34.28
2018-02-25T09:37:43.695Z,34.32
2018-02-25T09:38:46.248Z,34.38
2018-02-25T09:39:48.821Z,34.44
2018-02-25T09:40:51.368Z,34.51
2018-02-25T09:41:53.915Z,34.64
2018-02-25T09:42:56.378Z,34.78
2018-02-25T09:43:58.956Z,34.82
2018-02-25T09:45:01.516Z,34.85
2018-02-25T09:46:04.080Z,35.09
2018-02-25T09:47:06.552Z,35.38
2018-02-25T09:48:09.091Z,35.41
2018-02-25T09:49:11.653Z,35.62
2018-02-25T09:50:14.211Z,35.70
2018-02-25T09:51:16.774Z,35.38
2018-02-25T09:52:19.314Z,35.12
2018-02-25T09:53:21.857Z,34.81
2018-02-25T09:54:24.363Z,34.33
2018-02-25T09:55:26.911Z,34.49
2018-02-25T09:56:29.476Z,34.88
2018-02-25T09:57:32.033Z,34.39
2018-02-25T09:58:34.591Z,34.64
2018-02-25T09:59:37.150Z,34.64
2018-02-25T10:00:39.621Z,34.97
2018-02-25T10:01:42.167Z,34.89
2018-02-25T10:02:44.734Z,33.97
2018-02-25T10:03:47.202Z,34.01
2018-02-25T10:04:49.671Z,33.70
2018-02-25T10:05:52.206Z,33.43
2018-02-25T10:06:54.766Z,33.38
2018-02-25T10:07:57.304Z,33.36
2018-02-25T10:08:59.785Z,33.28
2018-02-25T10:10:02.345Z,33.22
2018-02-25T10:11:04.907Z,33.20
2018-02-25T10:12:07.458Z,33.16
2018-02-25T10:13:10.023Z,33.20
2018-02-25T10:14:12.508Z,33.25
2018-02-25T10:15:15.041Z,33.27
2018-02-25T10:16:17.601Z,33.35
2018-02-25T10:17:20.162Z,33.43
2018-02-25T10:18:22.636Z,33.46
2018-02-25T10:19:25.178Z,33.51
2018-02-25T10:20:27.742Z,33.61
2018-02-25T10:21:30.208Z,33.66
2018-02-25T10:22:32.695Z,33.64
2018-02-25T10:23:35.160Z,33.63
2018-02-25T10:24:37.697Z,33.58
2018-02-25T10:25:40.231Z,33.50
2018-02-25T10:26:42.796Z,33.42
2018-02-25T10:27:45.281Z,33.42
2018-02-25T10:28:47.808Z,33.38
2018-02-25T10:29:50.373Z,33.32
2018-02-25T10:30:52.933Z,33.33
2018-02-25T10:31:55.407Z,33.39
2018-02-25T10:32:57.947Z,33.45
2018-02-25T10:34:00.510Z,33.56
2018-02-25T10:35:03.078Z,33.64
2018-02-25T10:36:05.544Z,33.72
2018-02-25T10:37:08.083Z,33.76
2018-02-25T10:38:10.645Z,33.82
2018-02-25T10:39:13.116Z,33.78
2018-02-25T10:40:15.663Z,33.77
2018-02-25T10:41:18.140Z,33.72
2018-02-25T10:42:20.682Z,33.60
2018-02-25T10:43:23.156Z,33.49
2018-02-25T10:44:25.646Z,33.47
2018-02-25T10:45:28.133Z,33.46
2018-02-25T10:46:30.613Z,33.42
2018-02-25T10:47:33.177Z,33.45
2018-02-25T10:48:35.647Z,33.49
2018-02-25T10:49:38.192Z,33.52
2018-02-25T10:50:40.752Z,33.61
2018-02-25T10:51:43.274Z,33.65
2018-02-25T10:52:45.769Z,33.75
2018-02-25T10:53:48.335Z,33.78
2018-02-25T10:54:50.817Z,33.85
2018-02-25T10:55:53.394Z,33.86
2018-02-25T10:56:56.010Z,33.84
2018-02-25T10:57:58.560Z,33.81
2018-02-25T10:59:01.031Z,33.71
2018-02-25T11:00:03.534Z,33.63
2018-02-25T11:01:07.886Z,33.57
2018-02-25T11:02:10.371Z,33.52
2018-02-25T11:03:12.905Z,33.55
2018-02-25T11:04:15.469Z,33.58
2018-02-25T11:05:18.028Z,33.59
2018-02-25T11:06:20.588Z,33.58
2018-02-25T11:07:23.069Z,33.63
2018-02-25T11:08:25.550Z,33.49
2018-02-25T11:09:28.062Z,33.31
2018-02-25T11:10:30.622Z,33.33
2018-02-25T11:11:33.091Z,33.25
2018-02-25T11:12:35.644Z,33.51
2018-02-25T11:13:38.125Z,33.30
2018-02-25T11:14:40.656Z,33.49
2018-02-25T11:15:43.215Z,33.26
2018-02-25T11:16:45.776Z,33.46
2018-02-25T11:17:48.243Z,33.44
2018-02-25T11:18:50.794Z,33.42
2018-02-25T11:19:53.302Z,33.36
2018-02-25T11:20:55.821Z,33.38
2018-02-25T11:21:59.241Z,33.36
2018-02-25T11:23:01.722Z,33.31
2018-02-25T11:24:04.315Z,33.36
2018-02-25T11:25:06.811Z,33.41
2018-02-25T11:26:09.333Z,33.43
2018-02-25T11:27:12.095Z,33.51
2018-02-25T11:28:14.625Z,33.57
2018-02-25T11:29:17.105Z,33.63
2018-02-25T11:30:19.601Z,33.70
2018-02-25T11:31:22.161Z,33.79
2018-02-25T11:32:24.690Z,33.84
2018-02-25T11:33:27.253Z,33.77
2018-02-25T11:34:29.818Z,33.70
2018-02-25T11:35:32.371Z,33.50
2018-02-25T11:36:34.965Z,33.42
2018-02-25T11:37:37.490Z,33.42
2018-02-25T11:38:39.970Z,33.47
2018-02-25T11:39:42.508Z,33.47
2018-02-25T11:40:45.070Z,33.48
2018-02-25T11:41:47.630Z,33.48
2018-02-25T11:42:50.100Z,33.54
2018-02-25T11:43:52.647Z,33.62
2018-02-25T11:44:55.213Z,33.66
2018-02-25T11:45:57.757Z,33.75
2018-02-25T11:47:00.249Z,33.81
2018-02-25T11:48:02.716Z,33.86
2018-02-25T11:49:05.246Z,33.91
2018-02-25T11:50:07.801Z,33.92
2018-02-25T11:51:10.290Z,34.00
2018-02-25T11:52:12.927Z,34.05
2018-02-25T11:53:15.483Z,34.09
2018-02-25T11:54:18.041Z,34.15
2018-02-25T11:55:20.625Z,34.21
2018-02-25T11:56:23.108Z,34.30
2018-02-25T11:57:25.622Z,34.38
2018-02-25T11:58:28.106Z,34.46
2018-02-25T11:59:30.641Z,34.54
2018-02-25T12:00:33.126Z,34.58
2018-02-25T12:01:35.657Z,34.62
2018-02-25T12:02:38.214Z,34.64
2018-02-25T12:03:40.777Z,34.67
2018-02-25T12:04:43.270Z,34.68
2018-02-25T12:05:45.794Z,34.73
2018-02-25T12:06:48.354Z,34.78
2018-02-25T12:07:50.915Z,34.83
2018-02-25T12:08:53.476Z,34.89
2018-02-25T12:09:55.944Z,34.94
2018-02-25T12:10:58.492Z,35.00
2018-02-25T12:12:01.052Z,35.04
2018-02-25T12:13:03.614Z,35.13
2018-02-25T12:14:06.095Z,35.20
2018-02-25T12:15:08.635Z,35.25
2018-02-25T12:16:11.190Z,35.32
2018-02-25T12:17:13.749Z,35.38
2018-02-25T12:18:16.286Z,35.46
2018-02-25T12:19:18.872Z,35.46
2018-02-25T12:20:21.538Z,35.43
2018-02-25T12:21:24.093Z,35.36
2018-02-25T12:22:26.661Z,35.22
2018-02-25T12:23:29.216Z,35.07
2018-02-25T12:24:31.781Z,34.93
2018-02-25T12:25:34.336Z,34.80
2018-02-25T12:26:36.986Z,34.68
2018-02-25T12:27:39.661Z,34.67
2018-02-25T12:28:42.151Z,34.63
2018-02-25T12:29:44.676Z,34.60
2018-02-25T12:30:47.216Z,34.58
2018-02-25T12:31:49.683Z,34.58
2018-02-25T12:32:52.256Z,34.62
2018-02-25T12:33:54.813Z,34.67
2018-02-25T12:34:57.376Z,34.70
2018-02-25T12:36:01.779Z,34.74
2018-02-25T12:37:04.624Z,34.74
2018-02-25T12:38:07.198Z,34.74
2018-02-25T12:39:09.765Z,34.76
2018-02-25T12:40:12.246Z,34.80
2018-02-25T12:41:14.782Z,34.80
2018-02-25T12:42:17.349Z,34.86
2018-02-25T12:43:20.459Z,34.91
2018-02-25T12:44:22.970Z,34.95
2018-02-25T12:45:25.537Z,35.06
2018-02-25T12:46:28.022Z,35.10
2018-02-25T12:47:30.554Z,35.14
2018-02-25T12:48:33.909Z,35.17
2018-02-25T12:49:36.463Z,35.15
2018-02-25T12:50:38.953Z,35.12
2018-02-25T12:51:41.508Z,35.13
2018-02-25T12:52:43.975Z,35.13
2018-02-25T12:53:46.472Z,35.10
2018-02-25T12:54:48.983Z,35.09
2018-02-25T12:55:51.456Z,35.12
2018-02-25T12:56:53.999Z,35.15
2018-02-25T12:57:56.544Z,35.16
2018-02-25T12:58:59.093Z,35.20
2018-02-25T13:00:01.664Z,35.17
2018-02-25T13:01:04.141Z,35.16
2018-02-25T13:02:06.609Z,35.26
2018-02-25T13:03:09.158Z,35.43
2018-02-25T13:04:11.644Z,35.44
2018-02-25T13:05:14.175Z,35.48
2018-02-25T13:06:17.253Z,35.49
2018-02-25T13:07:19.808Z,35.54
2018-02-25T13:08:22.377Z,35.57
2018-02-25T13:09:24.927Z,35.65
2018-02-25T13:10:27.810Z,35.68
2018-02-25T13:11:30.357Z,35.75
2018-02-25T13:12:32.877Z,35.84
2018-02-25T13:13:35.585Z,35.93
2018-02-25T13:14:38.071Z,36.03
2018-02-25T13:15:40.563Z,36.08
2018-02-25T13:16:43.114Z,36.14
2018-02-25T13:17:45.597Z,36.16
2018-02-25T13:18:48.082Z,36.05
2018-02-25T13:19:50.569Z,36.19
2018-02-25T13:20:53.055Z,35.70
2018-02-25T13:21:55.553Z,35.44
2018-02-25T13:22:58.033Z,35.23
2018-02-25T13:24:00.527Z,35.17
2018-02-25T13:25:03.021Z,34.94